Time;durP1;ratioP1;P1;durP2;ratioP2;P2;SDS_P1;SDS_P2;PMS_P1;PMS_P2;Temp;Humidity;BMP_temperature;BMP_pressure;BME280_temperature;BME280_humidity;BME280_pressure;Samples;Min_cycle;Max_cycle;Signal;HPM_P1;HPM_P2
2021/04/06 00:00:09;;;;;;;13.13;11.93;;;;;;;9.60;58.17;98979.84;5020939;28;20036;-77
2021/04/06 00:02:37;;;;;;;14.50;12.35;;;;;;;9.32;58.47;98938.38;5038326;28;20056;-77
2021/04/06 00:05:06;;;;;;;12.85;11.57;;;;;;;9.41;58.40;98962.81;5038390;28;20021;-77
2021/04/06 00:07:33;;;;;;;15.25;13.55;;;;;;;9.57;58.83;98984.50;5037959;28;20175;-77
2021/04/06 00:10:37;;;;;;;17.10;13.50;;;;;;;8.94;59.04;98884.22;5020500;28;20142;-76
2021/04/06 00:13:04;;;;;;;14.63;13.23;;;;;;;9.48;58.84;98968.97;4942034;29;20023;-76
2021/04/06 00:15:31;;;;;;;15.45;13.60;;;;;;;9.22;58.59;98919.41;5024160;28;20033;-77
2021/04/06 00:18:00;;;;;;;12.82;10.52;;;;;;;9.25;58.51;98919.06;5038169;28;20026;-77
2021/04/06 00:20:28;;;;;;;13.18;11.88;;;;;;;9.47;58.84;98952.34;5037941;28;20022;-76
2021/04/06 00:22:56;;;;;;;12.57;11.27;;;;;;;9.45;58.84;98943.00;5037948;28;20120;-77
2021/04/06 00:25:26;;;;;;;12.52;11.43;;;;;;;9.26;58.61;98906.69;5037898;28;20021;-77
2021/04/06 00:27:52;;;;;;;13.65;11.93;;;;;;;9.48;58.67;98937.34;5037901;28;20025;-77
2021/04/06 00:30:29;;;;;;;14.60;13.10;;;;;;;9.46;59.25;98932.25;5037929;28;20027;-77
2021/04/06 00:33:01;;;;;;;17.33;15.52;;;;;;;9.17;59.05;98883.09;5037797;28;20029;-77
2021/04/06 00:35:30;;;;;;;17.08;15.27;;;;;;;9.52;58.57;98930.72;5020230;28;20025;-77
2021/04/06 00:37:56;;;;;;;19.25;15.98;;;;;;;9.04;58.79;98866.34;5037733;28;20421;-77
2021/04/06 00:40:25;;;;;;;16.23;14.60;;;;;;;8.99;58.59;98853.72;5020007;28;20025;-77
2021/04/06 00:42:59;;;;;;;14.65;13.25;;;;;;;9.28;58.55;98902.06;5019965;28;20022;-77
2021/04/06 00:45:26;;;;;;;16.50;14.75;;;;;;;9.32;58.55;98901.50;5037546;28;20075;-77
2021/04/06 00:48:12;;;;;;;14.48;12.45;;;;;;;9.34;58.39;98917.94;5037370;28;20029;-77
2021/04/06 00:50:39;;;;;;;14.18;12.77;;;;;;;9.35;58.13;98909.03;5037446;28;20021;-77
2021/04/06 00:53:05;;;;;;;15.60;14.15;;;;;;;9.17;58.46;98877.00;5019829;28;20514;-77
2021/04/06 00:55:36;;;;;;;16.08;14.02;;;;;;;8.99;58.29;98839.75;5037414;28;20026;-77
2021/04/06 00:58:13;;;;;;;16.48;14.52;;;;;;;9.08;58.42;98867.59;5037030;28;20017;-77
2021/04/06 01:00:43;;;;;;;15.30;13.80;;;;;;;8.97;58.23;98857.53;5037219;28;20029;-77
2021/04/06 01:03:18;;;;;;;18.13;14.65;;;;;;;9.23;58.31;98913.16;5037471;28;20026;-77
2021/04/06 01:05:58;;;;;;;17.15;15.32;;;;;;;9.19;58.29;98906.63;5037168;28;20056;-77
2021/04/06 01:08:37;;;;;;;16.90;14.90;;;;;;;9.11;58.50;98889.09;5016106;28;20460;-77
2021/04/06 01:11:04;;;;;;;16.17;14.48;;;;;;;8.99;58.85;98876.59;5016141;28;20029;-77
2021/04/06 01:13:32;;;;;;;16.23;14.57;;;;;;;8.77;58.83;98854.63;5017174;28;20060;-77
2021/04/06 01:15:58;;;;;;;14.88;13.38;;;;;;;9.04;58.67;98876.88;5017280;28;20388;-77
2021/04/06 01:18:27;;;;;;;17.67;15.48;;;;;;;9.06;59.11;98872.22;5017343;28;20029;-77
2021/04/06 01:20:56;;;;;;;16.02;14.20;;;;;;;8.48;58.63;98782.63;5017157;28;20053;-77
2021/04/06 01:23:22;;;;;;;16.80;14.70;;;;;;;8.98;59.35;98856.53;5016981;28;20034;-76
2021/04/06 01:25:54;;;;;;;17.67;14.85;;;;;;;9.01;59.20;98861.44;5017054;28;20037;-77
2021/04/06 01:28:21;;;;;;;;;;;;;;;8.86;59.53;98849.09;5016456;28;20040;-76
2021/04/06 01:30:49;;;;;;;15.68;13.98;;;;;;;9.01;58.96;98851.72;5016953;28;19921;-77
2021/04/06 01:33:17;;;;;;;16.15;14.15;;;;;;;8.62;59.03;98793.31;5017024;28;20026;-77
2021/04/06 01:35:47;;;;;;;17.38;14.85;;;;;;;8.93;58.85;98829.94;5015737;28;20357;-77
2021/04/06 01:38:14;;;;;;;18.17;16.00;;;;;;;8.93;58.77;98829.94;5016848;28;20037;-77
2021/04/06 01:40:45;;;;;;;15.20;13.45;;;;;;;8.69;59.03;98816.06;5015588;28;20100;-77
2021/04/06 01:43:17;;;;;;;16.52;13.88;;;;;;;8.93;58.76;98857.09;5017040;28;20022;-76
2021/04/06 01:45:46;;;;;;;15.18;13.65;;;;;;;8.53;59.38;98788.16;5016834;28;20160;-76
2021/04/06 01:48:15;;;;;;;15.35;13.73;;;;;;;8.98;58.89;98843.38;5016727;28;20030;-77
2021/04/06 01:50:42;;;;;;;15.18;13.38;;;;;;;8.93;59.12;98843.94;5016451;28;20112;-76
2021/04/06 01:53:08;;;;;;;15.73;13.88;;;;;;;8.93;59.14;98854.47;5016679;28;20471;-77
2021/04/06 01:55:36;;;;;;;16.88;14.32;;;;;;;8.66;59.26;98811.19;5016478;28;20032;-77
2021/04/06 01:58:03;;;;;;;17.13;15.20;;;;;;;8.96;59.16;98858.53;5016644;28;20029;-76
2021/04/06 02:03:08;;;;;;;16.25;14.55;;;;;;;8.88;58.93;98831.28;5016524;28;20077;-77
2021/04/06 02:05:33;;;;;;;15.60;13.98;;;;;;;9.03;58.97;98862.06;5016202;28;20098;-77
2021/04/06 02:08:05;;;;;;;24.95;20.77;;;;;;;9.02;59.05;98847.28;5018419;28;20496;-77
2021/04/06 02:10:32;;;;;;;27.17;20.25;;;;;;;8.77;58.80;98796.72;5018477;28;20336;-77
2021/04/06 02:13:06;;;;;;;22.30;17.33;;;;;;;8.56;59.24;98750.94;5035919;28;20037;-77
2021/04/06 02:15:32;;;;;;;23.95;17.98;;;;;;;8.49;58.90;98730.81;5036018;28;20029;-77
2021/04/06 02:17:57;;;;;;;25.25;18.45;;;;;;;9.02;59.43;98816.50;5035661;28;20344;-77
2021/04/06 02:20:24;;;;;;;22.33;18.98;;;;;;;8.76;59.24;98777.50;5018376;28;20032;-77
2021/04/06 02:22:58;;;;;;;24.90;18.52;;;;;;;8.72;59.32;98768.34;5035698;28;20064;-77
2021/04/06 02:25:25;;;;;;;22.13;17.45;;;;;;;8.97;58.90;98807.50;5035954;28;20387;-77
2021/04/06 02:27:51;;;;;;;22.83;18.00;;;;;;;8.65;59.39;98767.44;5035598;28;20370;-77
2021/04/06 02:30:17;;;;;;;25.05;18.98;;;;;;;8.97;59.27;98799.63;5035605;28;20036;-77
2021/04/06 02:32:42;;;;;;;21.60;19.30;;;;;;;8.70;59.41;98754.53;5035343;28;20091;-77
2021/04/06 02:35:11;;;;;;;21.20;18.17;;;;;;;8.98;58.96;98794.16;5018073;28;20395;-78
2021/04/06 02:37:41;;;;;;;21.73;19.30;;;;;;;8.73;59.01;98761.25;5035269;28;20459;-77
2021/04/06 02:40:09;;;;;;;24.35;20.38;;;;;;;9.00;59.00;98802.69;5035350;28;20029;-77
2021/04/06 02:42:43;;;;;;;21.75;17.50;;;;;;;8.99;59.18;98802.88;5017750;28;20333;-77
2021/04/06 02:45:16;;;;;;;23.17;17.85;;;;;;;8.98;59.35;98793.34;5035345;28;20021;-76
2021/04/06 02:47:51;;;;;;;30.63;21.55;;;;;;;8.74;59.09;98757.63;5035199;28;20053;-77
2021/04/06 02:50:21;;;;;;;27.27;20.08;;;;;;;9.03;59.63;98796.25;5035505;28;20025;-77
2021/04/06 02:52:46;;;;;;;24.85;19.17;;;;;;;8.48;59.48;98713.41;5035053;28;20026;-78
2021/04/06 02:55:13;;;;;;;24.73;20.15;;;;;;;8.96;59.25;98790.09;5017796;28;20036;-77
2021/04/06 02:57:50;;;;;;;31.02;21.25;;;;;;;8.74;59.31;98752.34;5017815;28;20329;-77
2021/04/06 03:00:25;;;;;;;27.63;21.52;;;;;;;9.03;60.04;98786.53;5017633;28;20033;-77
2021/04/06 03:02:50;;;;;;;26.85;22.05;;;;;;;8.25;59.75;98664.34;5017500;28;20344;-76
2021/04/06 03:05:27;;;;;;;28.77;20.83;;;;;;;8.34;59.79;98698.47;5035164;28;20052;-77
2021/04/06 03:07:52;;;;;;;28.50;21.23;;;;;;;8.88;59.82;98767.28;5034810;28;20033;-77
2021/04/06 03:10:19;;;;;;;25.15;21.30;;;;;;;8.99;59.57;98772.09;5035100;28;20446;-77
2021/04/06 03:12:46;;;;;;;27.75;22.77;;;;;;;8.23;59.41;98653.22;5034626;28;20025;-77
2021/04/06 03:15:13;;;;;;;23.77;20.60;;;;;;;8.88;59.21;98772.56;5034908;28;20029;-77
2021/04/06 03:17:45;;;;;;;24.33;19.73;;;;;;;8.71;59.59;98758.81;5034665;28;20036;-77
2021/04/06 03:20:12;;;;;;;23.38;19.23;;;;;;;8.80;59.33;98767.41;5034873;28;20399;-77
2021/04/06 03:22:37;;;;;;;23.02;19.73;;;;;;;8.81;59.48;98771.66;5034759;28;20391;-77
2021/04/06 03:25:04;;;;;;;28.48;21.13;;;;;;;8.80;59.43;98778.75;5034629;28;20025;-76
2021/04/06 03:27:30;;;;;;;31.40;23.00;;;;;;;8.36;59.41;98726.22;5034596;28;20317;-77
2021/04/06 03:29:57;;;;;;;30.58;21.13;;;;;;;8.87;59.59;98807.78;5034561;28;20037;-77
2021/04/06 03:32:23;;;;;;;28.83;19.52;;;;;;;8.83;59.90;98815.22;5017083;28;20037;-76
2021/04/06 03:34:50;;;;;;;26.10;20.75;;;;;;;8.82;59.90;98803.06;5016972;28;20036;-76
2021/04/06 03:37:16;;;;;;;26.38;19.85;;;;;;;8.86;59.64;98785.09;5034696;28;20446;-76
2021/04/06 03:39:42;;;;;;;20.58;16.00;;;;;;;8.54;59.54;98731.09;5016893;28;20037;-77
2021/04/06 03:42:07;;;;;;;28.15;20.17;;;;;;;8.83;59.41;98775.75;5034536;28;20018;-77
2021/04/06 03:44:33;;;;;;;21.52;16.67;;;;;;;8.55;59.85;98724.81;5034559;28;20056;-76
2021/04/06 03:47:01;;;;;;;21.60;16.55;;;;;;;8.87;59.53;98761.22;5016830;28;20040;-77
2021/04/06 03:49:30;;;;;;;21.15;17.42;;;;;;;8.87;59.66;98755.94;5034489;28;20036;-77
2021/04/06 03:52:07;;;;;;;21.50;18.05;;;;;;;8.43;59.68;98687.66;5016975;28;20064;-76
2021/04/06 03:54:49;;;;;;;22.67;17.98;;;;;;;8.67;59.95;98739.13;5034433;28;20029;-77
2021/04/06 03:57:31;;;;;;;;;;;;;;;8.73;60.31;98761.25;5017455;28;20025;-76
2021/04/06 03:59:57;;;;;;;;;;;;;;;8.66;60.23;98750.66;5034772;28;19910;-76
2021/04/06 04:02:23;;;;;;;23.45;16.35;;;;;;;8.75;59.81;98765.34;5034550;28;19916;-76
2021/04/06 04:04:53;;;;;;;21.65;17.83;;;;;;;8.48;59.98;98716.03;5016783;28;20037;-76
2021/04/06 04:07:19;;;;;;;22.92;17.67;;;;;;;8.77;60.12;98749.34;5034151;28;20025;-77
2021/04/06 04:09:45;;;;;;;22.65;18.02;;;;;;;8.78;59.60;98753.63;5033995;28;20049;-76
2021/04/06 04:12:11;;;;;;;21.40;18.50;;;;;;;8.40;60.24;98700.38;5034240;28;20054;-76
2021/04/06 04:14:37;;;;;;;22.17;18.95;;;;;;;8.71;60.01;98753.53;5034182;28;20048;-78
2021/04/06 04:17:03;;;;;;;25.05;19.10;;;;;;;8.86;59.71;98761.41;5016770;28;20446;-76
2021/04/06 04:19:29;;;;;;;20.98;18.38;;;;;;;8.95;60.03;98762.13;5034402;28;20029;-76
2021/04/06 04:21:55;;;;;;;21.60;17.65;;;;;;;8.69;59.93;98734.50;5034016;28;20030;-76
2021/04/06 04:24:20;;;;;;;20.70;16.02;;;;;;;8.65;60.13;98729.78;5034216;28;20033;-77
2021/04/06 04:26:46;;;;;;;21.88;16.77;;;;;;;8.59;59.73;98705.84;5034069;28;20033;-76
2021/04/06 04:29:11;;;;;;;21.20;16.70;;;;;;;8.50;60.04;98680.66;5034195;28;20095;-77
2021/04/06 04:31:37;;;;;;;22.33;17.10;;;;;;;8.54;60.19;98681.09;5017433;28;20428;-77
2021/04/06 04:34:02;;;;;;;21.70;17.45;;;;;;;8.39;60.21;98654.03;5037746;28;20486;-76
2021/04/06 04:36:27;;;;;;;24.60;17.77;;;;;;;8.58;60.24;98669.19;5037694;28;20045;-77
2021/04/06 04:38:53;;;;;;;23.13;19.88;;;;;;;9.12;60.16;98774.06;5037567;28;20112;-77
2021/04/06 04:41:18;;;;;;;25.75;22.92;;;;;;;8.97;60.60;98745.16;5037624;28;20450;-77
2021/04/06 04:43:44;;;;;;;36.58;26.63;;;;;;;8.81;60.10;98717.22;5037528;28;20071;-77
2021/04/06 04:46:09;;;;;;;32.15;25.13;;;;;;;8.54;59.80;98681.91;5020088;28;20032;-76
2021/04/06 04:48:35;;;;;;;21.77;18.55;;;;;;;9.07;60.34;98758.00;5037609;28;20363;-76
2021/04/06 04:51:00;;;;;;;17.63;15.50;;;;;;;9.01;60.60;98759.56;5037361;28;20025;-77
2021/04/06 04:53:26;;;;;;;19.05;17.10;;;;;;;8.46;60.41;98681.22;5037288;28;20037;-77
2021/04/06 04:55:51;;;;;;;20.35;17.17;;;;;;;8.89;60.47;98746.03;5037317;28;20029;-77
2021/04/06 04:58:17;;;;;;;30.85;25.70;;;;;;;8.61;60.43;98697.78;5019691;28;20481;-77
2021/04/06 05:00:42;;;;;;;30.58;26.02;;;;;;;8.83;61.10;98738.09;5019634;28;20456;-77
2021/04/06 05:03:07;;;;;;;33.28;26.70;;;;;;;8.88;60.50;98772.56;5019700;28;20021;-77
2021/04/06 05:05:33;;;;;;;31.50;26.33;;;;;;;8.70;60.85;98722.97;5037180;28;20425;-77
2021/04/06 05:07:58;;;;;;;31.85;26.35;;;;;;;8.71;61.13;98724.59;5036825;28;20111;-76
2021/04/06 05:10:24;;;;;;;34.22;29.17;;;;;;;8.87;61.00;98747.25;5036990;28;20055;-77
2021/04/06 05:12:49;;;;;;;34.75;27.27;;;;;;;8.45;61.29;98690.09;5036857;28;20041;-77
2021/04/06 05:15:16;;;;;;;33.75;28.75;;;;;;;8.87;60.98;98760.41;5036964;28;20026;-77
2021/04/06 05:17:42;;;;;;;39.88;33.88;;;;;;;8.86;61.03;98749.06;5036360;28;20037;-77
2021/04/06 05:20:09;;;;;;;37.72;31.35;;;;;;;8.66;61.51;98713.81;5036630;28;20021;-77
2021/04/06 05:22:35;;;;;;;32.97;28.85;;;;;;;8.81;61.76;98708.50;5036685;28;20104;-77
2021/04/06 05:25:02;;;;;;;38.83;32.88;;;;;;;8.69;61.43;98691.56;5019105;28;20482;-77
2021/04/06 05:27:27;;;;;;;39.38;34.55;;;;;;;8.51;61.99;98661.25;5036719;28;20048;-77
2021/04/06 05:29:53;;;;;;;40.50;33.25;;;;;;;8.63;61.57;98700.22;5036524;28;20037;-77
2021/04/06 05:32:19;;;;;;;40.28;34.30;;;;;;;8.60;62.07;98704.03;5036486;28;20083;-78
2021/04/06 05:34:44;;;;;;;35.28;29.90;;;;;;;8.93;61.71;98759.69;5018930;28;20034;-77
2021/04/06 05:37:10;;;;;;;31.50;25.48;;;;;;;8.54;62.07;98668.75;5019018;28;20501;-77
2021/04/06 05:39:35;;;;;;;31.13;25.17;;;;;;;8.79;62.26;98721.84;5018774;28;20029;-77
2021/04/06 05:42:01;;;;;;;28.30;24.67;;;;;;;8.95;62.32;98739.25;5033666;28;20160;-77
2021/04/06 05:44:28;;;;;;;30.50;23.98;;;;;;;8.97;62.08;98733.81;5019695;28;20036;-77
2021/04/06 05:46:57;;;;;;;28.92;24.63;;;;;;;8.92;62.70;98721.19;5028500;28;20025;-77
2021/04/06 05:49:25;;;;;;;32.13;24.55;;;;;;;9.03;62.65;98748.84;5035798;28;20154;-77
2021/04/06 05:51:51;;;;;;;27.73;23.05;;;;;;;9.05;62.37;98721.31;5031847;28;20025;-76
2021/04/06 05:54:17;;;;;;;29.55;25.73;;;;;;;9.12;62.56;98730.09;5018597;28;20029;-77
2021/04/06 05:56:43;;;;;;;30.65;25.77;;;;;;;9.13;62.81;98730.91;5036040;28;20406;-77
2021/04/06 05:59:10;;;;;;;28.20;24.20;;;;;;;9.08;62.30;98709.59;5032658;28;20344;-77
2021/04/06 06:01:41;;;;;;;33.40;27.30;;;;;;;9.06;62.40;98730.03;5020129;28;20036;-77
2021/04/06 06:04:12;;;;;;;36.28;26.90;;;;;;;9.14;62.91;98716.75;5024158;28;20026;-77
2021/04/06 06:06:38;;;;;;;33.22;25.73;;;;;;;8.37;62.55;98592.91;4998890;28;20034;-77
2021/04/06 06:09:04;;;;;;;37.45;27.00;;;;;;;9.14;63.03;98709.66;5002374;28;20045;-77
2021/04/06 06:11:53;;;;;;;35.85;26.42;;;;;;;8.68;63.03;98621.53;5032955;28;20391;-77
2021/04/06 06:14:48;;;;;;;37.60;25.92;;;;;;;9.06;63.89;98701.06;5027699;28;20029;-77
2021/04/06 06:17:22;;;;;;;33.15;25.25;;;;;;;9.08;63.04;98701.69;5016498;28;20049;-77
2021/04/06 06:19:50;;;;;;;32.67;23.88;;;;;;;8.93;63.19;98695.69;4989678;28;20036;-77
2021/04/06 06:22:21;;;;;;;26.08;20.73;;;;;;;9.04;63.22;98726.78;5041187;23;20111;-77
2021/04/06 06:25:00;;;;;;;22.42;19.10;;;;;;;8.96;63.61;98753.22;5017573;28;20030;-76
2021/04/06 06:30:18;;;;;;;24.58;19.25;;;;;;;8.86;64.35;98740.34;5030327;28;20025;-76
2021/04/06 06:32:43;;;;;;;26.30;20.88;;;;;;;8.75;63.70;98733.75;5028556;28;20030;-76
2021/04/06 06:35:09;;;;;;;26.98;21.17;;;;;;;8.63;63.84;98698.41;5027363;28;20026;-76
2021/04/06 06:37:35;;;;;;;27.05;22.10;;;;;;;8.34;64.15;98637.97;5023119;28;20057;-76
2021/04/06 06:40:04;;;;;;;24.17;18.83;;;;;;;8.77;64.37;98728.31;5019906;28;20071;-77
2021/04/06 06:42:31;;;;;;;22.35;19.08;;;;;;;8.58;63.72;98706.84;5024618;28;20125;-76
2021/04/06 06:44:58;;;;;;;24.83;20.52;;;;;;;8.86;64.15;98754.31;5018180;28;20057;-76
2021/04/06 06:47:25;;;;;;;25.30;19.80;;;;;;;8.58;63.93;98701.59;5031538;28;20105;-76
2021/04/06 06:49:53;;;;;;;23.33;20.45;;;;;;;8.24;64.05;98654.84;5029488;28;20033;-78
2021/04/06 06:52:22;;;;;;;23.75;20.15;;;;;;;8.84;64.11;98732.63;5032709;28;20030;-79
2021/04/06 06:54:52;;;;;;;28.45;22.70;;;;;;;8.91;63.95;98728.25;5017846;28;20034;-77
2021/04/06 06:57:18;;;;;;;31.05;23.45;;;;;;;8.97;63.95;98736.44;5030401;28;20086;-76
2021/04/06 06:59:47;;;;;;;28.52;22.25;;;;;;;8.33;63.83;98625.81;5032045;28;20036;-78
2021/04/06 07:02:21;;;;;;;24.23;20.00;;;;;;;8.68;63.88;98685.50;5032230;28;20322;-77
2021/04/06 07:04:47;;;;;;;26.63;23.30;;;;;;;8.81;63.73;98716.41;5017924;28;20022;-76
2021/04/06 07:07:12;;;;;;;25.35;20.83;;;;;;;8.35;63.67;98621.19;5017061;28;20036;-76
2021/04/06 07:09:39;;;;;;;27.27;22.13;;;;;;;8.76;63.38;98692.47;5030886;28;20029;-76
2021/04/06 07:12:07;;;;;;;30.13;25.23;;;;;;;8.48;63.93;98672.13;5019457;28;20021;-77
2021/04/06 07:14:37;;;;;;;30.27;25.27;;;;;;;8.58;63.44;98677.91;5015087;28;20060;-77
2021/04/06 07:17:07;;;;;;;28.10;23.55;;;;;;;8.74;63.83;98703.16;5033767;28;20057;-77
2021/04/06 07:19:37;;;;;;;30.95;23.52;;;;;;;8.80;64.58;98723.47;5034785;28;20527;-77
2021/04/06 07:22:04;;;;;;;28.35;25.25;;;;;;;8.76;64.10;98701.16;5030269;28;20124;-77
2021/04/06 07:24:35;;;;;;;32.03;25.63;;;;;;;8.58;65.49;98682.34;5023931;28;20026;-77
2021/04/06 07:27:06;;;;;;;31.95;26.02;;;;;;;8.45;64.17;98669.06;5024394;28;20033;-76
2021/04/06 07:29:32;;;;;;;25.50;21.95;;;;;;;8.49;64.80;98678.22;5032204;28;20037;-77
2021/04/06 07:31:57;;;;;;;25.42;21.23;;;;;;;8.31;64.45;98643.59;5033613;28;20510;-76
2021/04/06 07:34:24;;;;;;;24.50;21.58;;;;;;;8.93;64.15;98737.81;5034384;28;20025;-77
2021/04/06 07:36:52;;;;;;;26.80;22.50;;;;;;;8.54;64.04;98663.50;5033339;28;20041;-76
2021/04/06 07:39:18;;;;;;;24.55;21.55;;;;;;;8.64;64.15;98700.03;5034186;28;20357;-77
2021/04/06 07:41:46;;;;;;;22.92;20.13;;;;;;;9.01;64.33;98753.47;5032989;28;20032;-76
2021/04/06 07:44:14;;;;;;;22.38;18.88;;;;;;;8.80;63.82;98730.56;5032997;28;20021;-77
2021/04/06 07:46:43;;;;;;;23.30;20.15;;;;;;;8.95;63.89;98730.53;5018015;28;20440;-76
2021/04/06 07:49:33;;;;;;;26.85;19.48;;;;;;;9.17;63.17;98756.69;5025058;28;20063;-78
2021/04/06 07:52:05;;;;;;;23.95;20.40;;;;;;;9.15;63.13;98737.63;5031443;28;20040;-77
2021/04/06 07:54:30;;;;;;;25.27;20.98;;;;;;;9.30;62.99;98750.72;5033543;28;20032;-79
2021/04/06 07:56:58;;;;;;;23.08;19.40;;;;;;;9.36;63.05;98742.06;5025952;28;20029;-78
2021/04/06 07:59:23;;;;;;;24.38;20.52;;;;;;;9.38;63.25;98745.31;5032626;28;20057;-80
2021/04/06 08:01:55;;;;;;;24.80;21.17;;;;;;;9.41;63.00;98742.31;5032368;28;20091;-76
2021/04/06 08:04:23;;;;;;;22.17;19.35;;;;;;;8.75;62.85;98615.31;5034103;28;20036;-77
2021/04/06 08:06:51;;;;;;;22.85;18.42;;;;;;;8.89;62.73;98629.41;5032876;28;20351;-77
2021/04/06 08:09:28;;;;;;;20.55;18.33;;;;;;;9.48;62.97;98722.09;5024231;28;20022;-78
2021/04/06 08:12:10;;;;;;;25.20;20.00;;;;;;;9.58;62.82;98708.59;5033352;28;20402;-78
2021/04/06 08:14:39;;;;;;;19.67;16.75;;;;;;;9.52;62.66;98691.72;5030664;28;20032;-78
2021/04/06 08:17:23;;;;;;;23.20;20.10;;;;;;;9.77;62.85;98699.22;5035917;28;20111;-77
2021/04/06 08:19:53;;;;;;;24.73;21.33;;;;;;;9.25;62.61;98600.34;5037760;28;20025;-77
2021/04/06 08:22:43;;;;;;;23.67;20.83;;;;;;;9.99;62.44;98686.75;5037756;28;20356;-77
2021/04/06 08:25:15;;;;;;;26.02;21.15;;;;;;;10.02;62.31;98679.28;5030413;28;20026;-78
2021/04/06 08:27:41;;;;;;;28.08;24.50;;;;;;;9.99;62.02;98644.56;5026052;28;20029;-77
2021/04/06 08:30:15;;;;;;;27.70;22.75;;;;;;;10.15;62.10;98660.88;5033210;28;20029;-77
2021/04/06 08:33:02;;;;;;;27.48;22.20;;;;;;;10.19;61.71;98667.38;5030504;28;20033;-77
2021/04/06 08:35:46;;;;;;;30.52;25.35;;;;;;;10.19;62.63;98646.28;5045066;28;20024;-79
2021/04/06 08:41:10;;;;;;;34.03;27.13;;;;;;;10.27;62.25;98629.50;5057294;28;20127;-80
2021/04/06 08:43:38;;;;;;;30.10;24.73;;;;;;;10.34;62.55;98654.06;5038795;28;20108;-77
2021/04/06 08:46:07;;;;;;;30.83;25.08;;;;;;;10.39;62.66;98645.56;5037421;28;20413;-78
2021/04/06 08:48:44;;;;;;;28.38;23.38;;;;;;;10.40;62.61;98648.03;5052094;28;20035;-78
2021/04/06 08:51:22;;;;;;;29.33;23.50;;;;;;;10.42;61.82;98630.16;5057182;28;20029;-78
2021/04/06 08:53:50;;;;;;;33.33;27.58;;;;;;;10.16;61.93;98566.72;5055904;28;20099;-78
2021/04/06 08:56:18;;;;;;;30.65;23.52;;;;;;;10.42;61.83;98629.34;5054587;28;20175;-76
2021/04/06 08:58:43;;;;;;;31.58;25.98;;;;;;;10.21;62.30;98581.97;5037054;28;20036;-77
2021/04/06 09:01:09;;;;;;;33.35;24.35;;;;;;;10.01;62.11;98532.59;5031554;28;20033;-77
2021/04/06 09:03:35;;;;;;;38.83;28.00;;;;;;;10.24;62.65;98600.88;5027587;28;20049;-77
2021/04/06 09:06:13;;;;;;;37.30;28.20;;;;;;;10.33;62.10;98614.69;5016687;28;20120;-77
2021/04/06 09:08:51;;;;;;;34.95;27.65;;;;;;;9.56;62.85;98518.22;5016012;28;20038;-77
2021/04/06 09:11:21;;;;;;;33.47;24.15;;;;;;;10.17;62.86;98607.91;5025648;28;20025;-77
2021/04/06 09:13:55;;;;;;;33.33;24.92;;;;;;;10.19;63.13;98605.91;5036693;28;20421;-77
2021/04/06 09:16:25;;;;;;;38.17;28.42;;;;;;;10.28;62.83;98609.19;5030617;28;20487;-77
2021/04/06 09:18:55;;;;;;;36.05;24.38;;;;;;;10.15;63.11;98639.75;5030256;28;20029;-79
2021/04/06 09:21:23;;;;;;;32.58;23.70;;;;;;;10.16;62.39;98645.84;5036191;28;20029;-77
2021/04/06 09:23:57;;;;;;;32.83;25.30;;;;;;;10.01;63.16;98611.72;5031493;28;20112;-79
2021/04/06 09:26:23;;;;;;;34.63;25.98;;;;;;;10.24;62.62;98651.00;5029225;28;20037;-76
2021/04/06 09:29:00;;;;;;;36.05;26.20;;;;;;;10.04;62.81;98623.69;5033953;28;20052;-76
2021/04/06 09:31:27;;;;;;;33.42;26.27;;;;;;;9.71;62.96;98563.75;5032176;28;20033;-77
2021/04/06 09:34:05;;;;;;;36.08;29.52;;;;;;;10.27;63.07;98653.22;5033607;28;20047;-77
2021/04/06 09:36:31;;;;;;;34.83;26.38;;;;;;;9.92;62.98;98586.53;5025967;28;20361;-77
2021/04/06 09:38:56;;;;;;;33.33;25.65;;;;;;;10.01;62.50;98581.91;5030840;28;20033;-77
2021/04/06 09:41:30;;;;;;;34.03;26.50;;;;;;;10.68;61.68;98668.19;5031785;28;20046;-76
2021/04/06 09:43:56;;;;;;;36.30;28.00;;;;;;;10.50;61.60;98635.25;5031432;28;20386;-77
2021/04/06 09:46:31;;;;;;;34.85;27.13;;;;;;;10.35;61.73;98581.81;5028316;28;20033;-79
2021/04/06 09:48:57;;;;;;;29.85;24.42;;;;;;;10.77;61.46;98630.84;5031895;28;20100;-77
2021/04/06 09:51:22;;;;;;;36.35;27.30;;;;;;;11.17;61.13;98641.44;5030760;28;20037;-77
2021/04/06 09:53:49;;;;;;;31.33;25.45;;;;;;;11.38;60.77;98645.69;5026709;28;20352;-77
2021/04/06 09:56:15;;;;;;;34.83;25.23;;;;;;;11.11;60.56;98560.34;5026451;28;20112;-78
2021/04/06 09:58:41;;;;;;;41.80;25.70;;;;;;;11.04;60.10;98504.06;5027066;28;20108;-77
2021/04/06 10:01:27;;;;;;;32.42;24.73;;;;;;;11.43;59.81;98538.34;5032776;28;20048;-76
2021/04/06 10:03:59;;;;;;;32.25;23.48;;;;;;;11.61;59.12;98482.16;5029040;28;20500;-76
2021/04/06 10:06:41;;;;;;;29.40;23.80;;;;;;;12.17;59.50;98523.00;5015179;28;20333;-76
2021/04/06 10:09:22;;;;;;;35.10;24.95;;;;;;;11.45;59.38;98398.88;5024216;28;20033;-77
2021/04/06 10:11:49;;;;;;;32.45;27.63;;;;;;;12.01;59.21;98505.81;5035579;28;20490;-77
2021/04/06 10:14:15;;;;;;;30.38;24.73;;;;;;;11.50;59.49;98448.44;5034871;28;20076;-76
2021/04/06 10:16:42;;;;;;;39.88;30.52;;;;;;;11.60;59.48;98454.09;5033479;28;20057;-76
2021/04/06 10:19:38;;;;;;;42.28;32.47;;;;;;;11.79;59.88;98436.53;5034446;28;20033;-76
2021/04/06 10:22:05;;;;;;;41.40;32.50;;;;;;;11.76;59.73;98365.53;5021773;28;20037;-76
2021/04/06 10:24:33;;;;;;;48.13;34.25;;;;;;;11.76;59.92;98316.09;5035698;28;20412;-78
2021/04/06 10:27:12;;;;;;;48.90;37.75;;;;;;;11.60;60.36;98319.28;5035138;28;20421;-76
2021/04/06 10:29:38;;;;;;;37.83;29.38;;;;;;;11.74;60.38;98446.91;5028163;28;20531;-77
2021/04/06 10:32:04;;;;;;;37.95;28.98;;;;;;;11.75;60.20;98485.53;5034729;28;20040;-77
2021/04/06 10:34:30;;;;;;;34.38;28.08;;;;;;;11.75;60.44;98456.47;5032638;28;20036;-76
2021/04/06 10:37:10;;;;;;;40.13;29.88;;;;;;;11.82;60.75;98440.59;5033264;28;20037;-77
2021/04/06 10:39:41;;;;;;;35.15;26.35;;;;;;;11.72;60.13;98414.56;5035214;28;20067;-77
2021/04/06 10:42:13;;;;;;;33.33;27.20;;;;;;;11.59;60.86;98357.31;5033450;28;20052;-77
2021/04/06 10:44:42;;;;;;;36.08;27.95;;;;;;;11.81;60.09;98428.38;5028883;28;20291;-77
2021/04/06 10:47:08;;;;;;;31.92;26.10;;;;;;;11.76;60.02;98434.28;5025710;28;20066;-76
2021/04/06 10:49:33;;;;;;;30.50;24.80;;;;;;;11.98;60.28;98471.84;5031963;28;20339;-78
2021/04/06 10:52:01;;;;;;;36.03;27.40;;;;;;;11.42;60.04;98372.06;5034953;28;20021;-77
2021/04/06 10:54:27;;;;;;;32.40;25.38;;;;;;;12.07;60.04;98470.56;5032361;28;20029;-79
2021/04/06 10:56:58;;;;;;;35.15;26.38;;;;;;;12.00;60.13;98470.59;5032188;28;20037;-78
2021/04/06 10:59:37;;;;;;;35.53;26.58;;;;;;;11.55;60.24;98430.13;5034045;28;20310;-77
2021/04/06 11:02:04;;;;;;;33.47;25.17;;;;;;;11.82;60.98;98470.50;5027535;28;20033;-77
2021/04/06 11:04:38;;;;;;;38.10;27.58;;;;;;;12.05;59.97;98499.06;5029352;28;20408;-78
2021/04/06 11:07:06;;;;;;;40.35;31.65;;;;;;;11.83;60.21;98443.00;5034429;28;20075;-77
2021/04/06 11:09:44;;;;;;;36.85;28.33;;;;;;;12.19;60.10;98466.22;5027540;28;20061;-77
2021/04/06 11:12:11;;;;;;;35.80;25.83;;;;;;;12.39;60.00;98463.41;5034460;28;20053;-78
2021/04/06 11:14:39;;;;;;;34.42;27.55;;;;;;;12.57;59.27;98447.56;5030257;28;20145;-78
2021/04/06 11:17:06;;;;;;;38.75;28.15;;;;;;;12.77;58.99;98434.16;5023980;28;20029;-77
2021/04/06 11:19:44;;;;;;;39.50;30.73;;;;;;;13.01;59.19;98416.59;5026717;28;20511;-77
2021/04/06 11:22:18;;;;;;;38.55;28.52;;;;;;;13.25;58.19;98406.97;5027301;28;20518;-77
2021/04/06 11:24:46;;;;;;;36.65;28.95;;;;;;;13.09;58.02;98334.16;5032967;28;20033;-78
2021/04/06 11:27:13;;;;;;;36.03;26.77;;;;;;;13.61;57.17;98331.84;5019904;28;20041;-76
2021/04/06 11:29:40;;;;;;;30.75;26.25;;;;;;;14.37;56.18;98378.03;5016760;28;20087;-78
2021/04/06 11:32:09;;;;;;;34.97;29.42;;;;;;;14.64;55.12;98371.22;5033256;28;20325;-78
2021/04/06 11:34:35;;;;;;;38.63;30.05;;;;;;;14.35;54.99;98292.47;5026300;28;20073;-77
2021/04/06 11:37:01;;;;;;;38.40;31.67;;;;;;;14.80;54.88;98330.66;5031758;28;20117;-77
2021/04/06 11:39:30;;;;;;;39.35;32.05;;;;;;;15.23;53.97;98332.84;5021764;28;20022;-77
2021/04/06 11:41:56;;;;;;;36.95;30.20;;;;;;;15.61;53.39;98341.28;5024827;28;20408;-77